Time;durP1;ratioP1;P1;durP2;ratioP2;P2;SDS_P1;SDS_P2;PMS_P1;PMS_P2;Temp;Humidity;BMP_temperature;BMP_pressure;BME280_temperature;BME280_humidity;BME280_pressure;Samples;Min_cycle;Max_cycle;Signal;HPM_P1;HPM_P2
2021/07/26 00:01:57;;;;;;;;;7.50;7.00;;;;;25.32;48.78;100489.00;5078729;28;45355;-49
2021/07/26 00:04:22;;;;;;;;;8.00;6.25;;;;;25.32;49.51;100495.13;5078627;28;45230;-45
2021/07/26 00:06:48;;;;;;;;;9.00;7.75;;;;;25.31;48.56;100488.16;5079018;27;45380;-47
2021/07/26 00:09:14;;;;;;;;;8.25;7.50;;;;;25.31;49.34;100493.44;5078383;28;45842;-45
2021/07/26 00:11:39;;;;;;;;;6.50;6.50;;;;;25.30;49.24;100486.47;5077260;28;45262;-48
2021/07/26 00:14:05;;;;;;;;;11.25;8.25;;;;;25.31;49.02;100489.97;5077063;28;45366;-45
2021/07/26 00:16:30;;;;;;;;;6.75;6.75;;;;;25.32;49.47;100487.19;5078682;28;45529;-44
2021/07/26 00:18:55;;;;;;;;;7.00;7.00;;;;;25.32;49.25;100484.53;5059944;28;48050;-47
2021/07/26 00:21:21;;;;;;;;;7.00;7.00;;;;;25.31;49.23;100490.81;5078334;28;49560;-49
2021/07/26 00:23:46;;;;;;;;;6.00;6.00;;;;;25.31;49.07;100485.50;5077244;28;45221;-50
2021/07/26 00:26:12;;;;;;;;;7.50;6.50;;;;;25.32;48.77;100486.34;5094078;27;45533;-48
2021/07/26 00:28:37;;;;;;;;;10.75;8.25;;;;;25.31;49.43;100482.84;5077905;27;46902;-50
2021/07/26 00:31:03;;;;;;;;;5.50;4.50;;;;;25.31;49.43;100484.66;5078151;28;45359;-45
2021/07/26 00:34:08;;;;;;;;;6.50;6.00;;;;;25.32;49.27;100486.34;5078288;28;45424;-50
2021/07/26 00:36:39;;;;;;;;;7.75;7.50;;;;;25.32;49.20;100489.00;5078237;28;45465;-47
2021/07/26 00:39:06;;;;;;;;;8.75;6.50;;;;;25.31;49.41;100482.84;5077988;28;45517;-46
2021/07/26 00:41:33;;;;;;;;;5.75;5.75;;;;;25.30;49.38;100491.75;5077911;27;45447;-46
2021/07/26 00:43:58;;;;;;;;;7.00;7.00;;;;;25.30;48.70;100486.47;5078073;28;45316;-48
2021/07/26 00:46:23;;;;;;;;;9.00;9.00;;;;;25.30;48.71;100486.47;5078435;28;45491;-44
2021/07/26 00:48:50;;;;;;;;;7.00;7.00;;;;;25.31;48.70;100487.31;5077353;28;55627;-50
2021/07/26 00:51:15;;;;;;;;;6.75;6.75;;;;;25.31;49.41;100488.16;5077830;28;45658;-47
2021/07/26 00:53:41;;;;;;;;;3.25;3.25;;;;;25.31;49.33;100488.16;5077821;28;45389;-46
2021/07/26 00:56:07;;;;;;;;;9.00;7.00;;;;;25.28;48.66;100477.81;5077967;27;45563;-46
2021/07/26 00:58:34;;;;;;;;;7.50;5.50;;;;;25.31;49.20;100482.84;5076279;28;48156;-46
2021/07/26 01:01:00;;;;;;;;;8.75;7.00;;;;;25.30;49.04;100478.50;5059271;28;45363;-46
2021/07/26 01:03:25;;;;;;;;;6.75;6.75;;;;;25.31;48.75;100482.00;5077768;28;45309;-46
2021/07/26 01:05:51;;;;;;;;;9.25;6.25;;;;;25.30;49.27;100478.50;5078141;28;45316;-46
2021/07/26 01:08:17;;;;;;;;;6.75;6.75;;;;;25.30;49.01;100475.03;5077479;27;45442;-47
2021/07/26 01:10:42;;;;;;;;;8.75;8.00;;;;;25.29;48.64;100479.50;5077518;28;45339;-47
2021/07/26 01:13:07;;;;;;;;;10.00;6.00;;;;;25.31;48.74;100476.72;5077510;27;45425;-48
2021/07/26 01:15:33;;;;;;;;;7.00;6.00;;;;;25.31;49.23;100485.50;5077593;28;45237;-46
2021/07/26 01:18:17;;;;;;;;;7.25;6.25;;;;;25.30;49.13;100481.16;5077257;27;46584;-46
2021/07/26 01:20:42;;;;;;;;;7.25;7.25;;;;;25.29;49.21;100483.94;5077358;27;45707;-45
2021/07/26 01:23:08;;;;;;;;;8.50;7.00;;;;;25.28;48.93;100477.81;5077460;27;45463;-44
2021/07/26 01:25:37;;;;;;;;;8.50;8.50;;;;;25.30;49.16;100482.97;5077400;28;45439;-47
2021/07/26 01:28:03;;;;;;;;;7.25;6.50;;;;;25.29;48.41;100483.94;5076694;27;46205;-46
2021/07/26 01:30:28;;;;;;;;;10.00;8.00;;;;;25.29;49.10;100483.94;5077082;27;45320;-45
2021/07/26 01:32:53;;;;;;;;;7.50;7.50;;;;;25.29;49.23;100495.41;5077461;28;45347;-46
2021/07/26 01:35:19;;;;;;;;;7.00;7.00;;;;;25.29;48.93;100483.94;5077190;27;45216;-47
2021/07/26 01:37:44;;;;;;;;;7.25;7.25;;;;;25.29;48.95;100490.09;5076920;28;46155;-49
2021/07/26 01:40:10;;;;;;;;;10.00;10.00;;;;;25.28;48.96;100488.41;5077054;28;45415;-47
2021/07/26 01:42:43;;;;;;;;;10.25;8.25;;;;;25.28;48.92;100493.72;5077016;28;45257;-46
2021/07/26 01:45:10;;;;;;;;;8.00;7.75;;;;;25.28;48.32;100504.34;5077101;28;45560;-46
2021/07/26 01:47:47;;;;;;;;;6.75;6.75;;;;;25.28;48.66;100492.88;5076724;28;45384;-48
2021/07/26 01:50:18;;;;;;;;;10.25;9.50;;;;;25.29;48.10;100497.22;5058668;28;45902;-46
2021/07/26 01:52:43;;;;;;;;;11.25;9.00;;;;;25.26;48.60;100500.97;5076996;27;45504;-45
2021/07/26 01:55:10;;;;;;;;;6.25;6.25;;;;;25.28;48.23;100508.78;5077214;27;45421;-47
2021/07/26 01:57:35;;;;;;;;;9.50;8.00;;;;;25.28;48.37;100509.63;5076744;27;45557;-45
2021/07/26 02:00:01;;;;;;;;;6.75;6.75;;;;;25.27;48.54;100502.66;5076776;27;45390;-47
2021/07/26 02:02:28;;;;;;;;;7.75;7.75;;;;;25.26;48.08;100511.56;5077075;28;45234;-47
2021/07/26 02:04:55;;;;;;;;;9.50;7.00;;;;;25.27;48.04;100512.41;5093138;27;45559;-46
2021/07/26 02:07:20;;;;;;;;;7.50;6.50;;;;;25.26;48.61;100514.22;5076602;28;45761;-46
2021/07/26 02:09:46;;;;;;;;;8.50;7.25;;;;;25.26;48.65;100514.22;5076446;28;46114;-46
2021/07/26 02:12:11;;;;;;;;;6.00;6.00;;;;;25.26;47.98;100519.53;5076677;28;45443;-45
2021/07/26 02:14:36;;;;;;;;;6.00;6.00;;;;;25.26;47.96;100516.88;5076678;28;45536;-49
2021/07/26 02:17:02;;;;;;;;;7.75;6.25;;;;;25.26;48.58;100524.81;5092213;27;46125;-48
2021/07/26 02:19:27;;;;;;;;;7.25;7.25;;;;;25.25;48.36;100528.44;5076733;28;45454;-48
2021/07/26 02:21:53;;;;;;;;;9.00;6.25;;;;;25.25;48.00;100522.28;5076675;28;45415;-49
2021/07/26 02:24:18;;;;;;;;;7.00;7.00;;;;;25.25;47.91;100524.94;5076737;28;45319;-46
2021/07/26 02:26:44;;;;;;;;;6.00;6.00;;;;;25.24;48.02;100524.09;5076116;28;45464;-45
2021/07/26 02:29:09;;;;;;;;;8.25;7.25;;;;;25.25;48.09;100530.25;5076451;28;45247;-45
2021/07/26 02:31:35;;;;;;;;;7.25;7.00;;;;;25.25;48.42;100540.84;5076369;27;45321;-49
2021/07/26 02:34:00;;;;;;;;;8.25;6.75;;;;;25.24;48.08;100534.72;5076515;28;45319;-46
2021/07/26 02:36:26;;;;;;;;;7.25;7.25;;;;;25.22;48.43;100536.63;5076385;28;46411;-48
2021/07/26 02:38:51;;;;;;;;;8.75;7.25;;;;;25.24;47.96;100540.03;5076056;28;45566;-49
2021/07/26 02:41:17;;;;;;;;;8.00;6.00;;;;;25.23;47.99;100537.50;5076391;28;45252;-45
2021/07/26 02:43:42;;;;;;;;;11.25;8.00;;;;;25.22;48.26;100541.94;5076381;28;45297;-45
2021/07/26 02:46:09;;;;;;;;;9.75;8.25;;;;;25.23;48.22;100538.34;5075980;27;45347;-46
2021/07/26 02:48:35;;;;;;;;;7.75;7.50;;;;;25.22;47.99;100544.59;5078934;28;45395;-48
2021/07/26 02:51:01;;;;;;;;;8.25;7.25;;;;;25.23;48.37;100543.63;5079856;28;45348;-46
2021/07/26 02:53:26;;;;;;;;;7.25;7.25;;;;;25.23;47.98;100542.81;5080114;28;45397;-46
2021/07/26 02:55:52;;;;;;;;;7.50;7.00;;;;;25.22;48.32;100541.13;5079643;28;45273;-46
2021/07/26 02:58:17;;;;;;;;;8.00;6.00;;;;;25.21;47.79;100534.94;5079595;28;45446;-46
2021/07/26 03:00:46;;;;;;;;;10.25;8.25;;;;;25.20;47.56;100538.56;5079628;28;45383;-47
2021/07/26 03:03:11;;;;;;;;;9.00;8.50;;;;;25.20;47.66;100535.91;5061673;28;45538;-47
2021/07/26 03:05:37;;;;;;;;;7.00;7.00;;;;;25.20;48.00;100532.44;5079352;27;46147;-48
2021/07/26 03:08:02;;;;;;;;;11.75;9.50;;;;;25.19;48.29;100530.75;5079250;28;45319;-47
2021/07/26 03:10:28;;;;;;;;;8.00;8.00;;;;;25.18;48.39;100535.22;5079856;28;45311;-48
2021/07/26 03:12:53;;;;;;;;;7.25;6.50;;;;;25.17;47.88;100531.72;5079547;28;45277;-46
2021/07/26 03:15:19;;;;;;;;;8.00;8.00;;;;;25.19;48.15;100534.22;5079246;28;45214;-47
2021/07/26 03:17:45;;;;;;;;;8.50;8.50;;;;;25.19;48.20;100530.75;5078066;28;45455;-46
2021/07/26 03:20:11;;;;;;;;;7.25;7.00;;;;;25.18;48.21;100529.91;5079471;28;45449;-46
2021/07/26 03:22:51;;;;;;;;;8.25;8.25;;;;;25.18;48.10;100535.22;5079431;27;45478;-45
2021/07/26 03:25:17;;;;;;;;;8.50;5.25;;;;;25.16;47.63;100527.38;5079164;28;45787;-47
2021/07/26 03:27:43;;;;;;;;;8.75;7.25;;;;;25.17;48.08;100536.19;5078896;27;45303;-47
2021/07/26 03:30:09;;;;;;;;;7.00;7.00;;;;;25.16;47.97;100531.84;5095116;27;45250;-47
2021/07/26 03:32:34;;;;;;;;;9.75;9.75;;;;;25.16;47.70;100539.81;5079155;28;45613;-44
2021/07/26 03:35:00;;;;;;;;;10.00;8.25;;;;;25.15;48.29;100536.28;5078981;28;45551;-44
2021/07/26 03:37:25;;;;;;;;;10.00;9.00;;;;;25.15;47.86;100538.09;5078984;28;45412;-45
2021/07/26 03:39:50;;;;;;;;;10.50;9.00;;;;;25.16;47.81;100542.44;5079086;27;45393;-51
2021/07/26 03:42:16;;;;;;;;;9.50;9.50;;;;;25.14;47.58;100545.22;5079107;27;45493;-50
2021/07/26 03:44:41;;;;;;;;;9.25;9.25;;;;;25.15;47.89;100541.59;5078831;28;45371;-48
2021/07/26 03:47:07;;;;;;;;;13.00;12.75;;;;;25.15;47.75;100543.41;5078770;28;45368;-48
2021/07/26 03:49:33;;;;;;;;;10.00;10.00;;;;;25.14;47.48;100539.06;5079167;27;45494;-48
2021/07/26 03:51:58;;;;;;;;;9.00;9.00;;;;;25.14;47.65;100539.06;5079316;28;45415;-44
2021/07/26 03:54:23;;;;;;;;;11.00;9.25;;;;;25.14;47.73;100541.72;5078574;28;46201;-44
2021/07/26 03:56:49;;;;;;;;;10.50;10.50;;;;;25.13;48.28;100548.84;5078573;27;45256;-46
2021/07/26 03:59:14;;;;;;;;;9.00;9.00;;;;;25.13;47.72;100540.03;5078617;28;45281;-46
2021/07/26 04:01:39;;;;;;;;;8.00;8.00;;;;;25.13;48.15;100548.84;5078783;28;45300;-47
2021/07/26 04:04:05;;;;;;;;;10.25;10.25;;;;;25.13;47.61;100540.03;5078487;28;45304;-49
2021/07/26 04:06:30;;;;;;;;;10.75;10.00;;;;;25.14;48.00;100547.03;5078672;28;45366;-46
2021/07/26 04:08:55;;;;;;;;;11.25;11.00;;;;;25.13;47.70;100558.59;5094385;27;45265;-46
2021/07/26 04:11:32;;;;;;;;;10.00;9.25;;;;;25.11;47.59;100550.78;5078763;28;45170;-46
2021/07/26 04:14:01;;;;;;;;;10.25;8.50;;;;;25.12;47.60;100556.91;5093805;27;48345;-44
2021/07/26 04:16:26;;;;;;;;;10.50;8.00;;;;;25.12;47.69;100555.13;5078329;28;45472;-45
2021/07/26 04:18:52;;;;;;;;;13.00;9.75;;;;;25.12;48.13;100557.78;5078131;28;45340;-45
2021/07/26 04:21:18;;;;;;;;;10.75;9.25;;;;;25.11;47.79;100549.91;5078599;28;45267;-45
2021/07/26 04:23:44;;;;;;;;;8.50;8.50;;;;;25.11;47.97;100558.72;5078144;28;45428;-46
2021/07/26 04:26:09;;;;;;;;;7.00;7.00;;;;;25.11;47.71;100556.06;5078105;28;45344;-49
2021/07/26 04:28:35;;;;;;;;;11.75;9.00;;;;;25.10;47.67;100559.69;5078594;27;45331;-46
2021/07/26 04:31:01;;;;;;;;;9.00;9.00;;;;;25.11;48.18;100556.06;5078629;27;45466;-45
2021/07/26 04:33:26;;;;;;;;;10.75;10.75;;;;;25.11;47.55;100560.53;5077899;27;46350;-46
2021/07/26 04:35:51;;;;;;;;;12.00;9.50;;;;;25.11;47.63;100557.88;5078018;28;45222;-42
2021/07/26 04:38:17;;;;;;;;;9.75;8.00;;;;;25.11;48.07;100560.53;5078213;28;45272;-45
2021/07/26 04:40:42;;;;;;;;;10.00;9.50;;;;;25.10;48.30;100559.69;5078443;28;45214;-47
2021/07/26 04:43:07;;;;;;;;;9.00;9.00;;;;;25.10;47.66;100556.19;5077689;28;54515;-47
2021/07/26 04:45:32;;;;;;;;;8.75;6.25;;;;;25.10;47.73;100564.13;5078305;28;45403;-50
2021/07/26 04:47:58;;;;;;;;;10.50;8.75;;;;;25.10;47.85;100566.78;5077871;28;45256;-47
2021/07/26 04:50:23;;;;;;;;;10.50;9.00;;;;;25.10;48.13;100564.13;5078178;27;45367;-49
2021/07/26 04:52:49;;;;;;;;;10.00;9.50;;;;;25.09;47.76;100565.09;5077771;27;46071;-49
2021/07/26 04:55:14;;;;;;;;;10.50;10.50;;;;;25.10;48.15;100569.44;5077762;28;45371;-46
2021/07/26 04:57:39;;;;;;;;;8.25;8.25;;;;;25.09;47.72;100571.25;5077868;28;45344;-49
2021/07/26 05:00:05;;;;;;;;;7.75;7.00;;;;;25.09;47.44;100576.56;5078234;28;45576;-47
2021/07/26 05:02:31;;;;;;;;;10.25;8.25;;;;;25.09;48.18;100583.66;5077342;28;47393;-49
2021/07/26 05:04:56;;;;;;;;;9.50;7.25;;;;;25.10;47.81;100580.03;5077507;28;45277;-48
2021/07/26 05:07:21;;;;;;;;;7.75;7.25;;;;;25.09;47.91;100584.53;5077583;28;45343;-46
2021/07/26 05:09:47;;;;;;;;;9.00;8.50;;;;;25.09;47.96;100583.66;5075908;28;45514;-48
2021/07/26 05:12:13;;;;;;;;;10.25;10.25;;;;;25.08;47.93;100582.00;5077426;28;46031;-49
2021/07/26 05:14:43;;;;;;;;;7.50;7.50;;;;;25.09;48.13;100583.66;5077350;28;45371;-48
2021/07/26 05:17:09;;;;;;;;;10.00;9.00;;;;;25.09;48.02;100588.97;5076607;28;45541;-47
2021/07/26 05:19:35;;;;;;;;;7.00;7.00;;;;;25.09;48.46;100594.25;5077869;28;45323;-47
2021/07/26 05:22:02;;;;;;;;;9.00;8.00;;;;;25.09;48.01;100591.63;5077144;28;46091;-50
2021/07/26 05:24:27;;;;;;;;;8.00;6.75;;;;;25.09;47.94;100594.25;5077394;27;45836;-46
2021/07/26 05:27:05;;;;;;;;;8.00;7.00;;;;;25.09;48.51;100595.13;5077255;28;45324;-47
2021/07/26 05:29:31;;;;;;;;;7.75;6.75;;;;;25.09;48.34;100599.56;5077563;28;45529;-45
2021/07/26 05:32:00;;;;;;;;;8.75;8.75;;;;;25.09;48.06;100596.91;5076994;28;46217;-46
2021/07/26 05:34:26;;;;;;;;;9.00;9.00;;;;;25.08;47.87;100589.97;5077023;28;45332;-46
2021/07/26 05:36:53;;;;;;;;;7.25;5.50;;;;;25.09;48.50;100591.63;5077206;28;45334;-46
2021/07/26 05:39:18;;;;;;;;;9.00;9.00;;;;;25.10;48.11;100593.31;5077385;28;45953;-46
2021/07/26 05:41:44;;;;;;;;;8.00;7.75;;;;;25.09;48.21;100595.13;5076913;28;46179;-46
2021/07/26 05:44:10;;;;;;;;;7.25;5.00;;;;;25.08;48.45;100590.78;5077033;28;45376;-46
2021/07/26 05:46:35;;;;;;;;;8.75;8.00;;;;;25.08;48.00;100589.97;5077384;28;45265;-47
2021/07/26 05:49:01;;;;;;;;;9.00;8.00;;;;;25.10;48.53;100601.25;5077295;28;45225;-52
2021/07/26 05:51:26;;;;;;;;;7.25;5.75;;;;;25.09;48.63;100596.91;5076784;28;45567;-48
2021/07/26 05:53:52;;;;;;;;;6.75;6.75;;;;;25.10;48.51;100595.97;5076723;28;45224;-46
2021/07/26 05:56:17;;;;;;;;;9.75;9.00;;;;;25.08;48.54;100588.13;5076900;28;45236;-47
2021/07/26 05:58:46;;;;;;;;;9.25;9.25;;;;;25.09;48.50;100592.47;5076842;27;45368;-46
2021/07/26 06:03:47;;;;;;;;;7.25;7.25;;;;;25.10;47.94;100590.66;5076774;28;45384;-50
2021/07/26 06:06:13;;;;;;;;;9.25;7.75;;;;;25.08;48.26;100588.13;5076849;28;45324;-48
2021/07/26 06:08:38;;;;;;;;;6.75;6.25;;;;;25.10;47.99;100591.50;5077272;28;45593;-48
2021/07/26 06:11:04;;;;;;;;;10.00;7.00;;;;;25.10;48.50;100590.66;5076533;27;45242;-46
2021/07/26 06:13:30;;;;;;;;;6.50;6.00;;;;;25.10;48.61;100594.16;5076500;28;45434;-47
2021/07/26 06:15:56;;;;;;;;;8.25;6.00;;;;;25.10;48.65;100590.66;5076690;28;45408;-48
2021/07/26 06:18:21;;;;;;;;;8.00;8.00;;;;;25.10;48.15;100593.31;5076787;28;45508;-48
2021/07/26 06:20:47;;;;;;;;;8.00;6.50;;;;;25.10;48.09;100590.66;5076313;28;46108;-50
2021/07/26 06:23:12;;;;;;;;;6.50;6.00;;;;;25.10;48.43;100594.16;5078586;28;45567;-44
2021/07/26 06:25:37;;;;;;;;;8.75;7.00;;;;;25.12;48.09;100599.34;5080501;28;45295;-44
2021/07/26 06:28:03;;;;;;;;;10.00;8.00;;;;;25.11;48.58;100603.81;5080048;27;45228;-45
2021/07/26 06:30:28;;;;;;;;;7.00;6.25;;;;;25.11;47.85;100598.50;5079914;28;45494;-47
2021/07/26 06:32:55;;;;;;;;;6.00;6.00;;;;;25.11;48.10;100598.50;5079978;27;45754;-47
2021/07/26 06:35:21;;;;;;;;;7.25;7.25;;;;;25.12;47.98;100596.69;5080034;28;45400;-46
2021/07/26 06:37:47;;;;;;;;;9.00;7.25;;;;;25.11;48.13;100602.94;5080169;28;45383;-47
2021/07/26 06:40:12;;;;;;;;;9.00;9.00;;;;;25.11;48.69;100608.25;5079667;28;45335;-49
2021/07/26 06:42:38;;;;;;;;;8.25;6.75;;;;;25.09;48.09;100604.88;5079855;27;45400;-48
2021/07/26 06:45:07;;;;;;;;;7.00;6.50;;;;;25.12;48.00;100608.16;5079927;28;45273;-48
2021/07/26 06:47:33;;;;;;;;;8.00;7.25;;;;;25.12;48.58;100609.94;5079993;27;45498;-47
2021/07/26 06:49:58;;;;;;;;;8.00;7.00;;;;;25.12;48.12;100610.81;5079522;28;45270;-46
2021/07/26 06:52:23;;;;;;;;;7.25;7.25;;;;;25.13;48.29;100609.84;5079533;28;45218;-46
2021/07/26 06:54:49;;;;;;;;;8.25;7.25;;;;;25.13;48.53;100608.97;5079766;28;45306;-46
2021/07/26 06:57:14;;;;;;;;;9.00;7.75;;;;;25.14;48.53;100610.66;5079561;27;45992;-49
2021/07/26 06:59:39;;;;;;;;;11.25;7.75;;;;;25.14;47.92;100610.66;5078505;28;46004;-45
2021/07/26 07:02:05;;;;;;;;;5.00;5.00;;;;;25.13;48.02;100617.81;5079209;27;52204;-47
2021/07/26 07:04:30;;;;;;;;;7.75;7.75;;;;;25.14;47.99;100613.31;5079688;28;45462;-47
2021/07/26 07:06:55;;;;;;;;;8.00;7.00;;;;;25.14;48.46;100618.63;5079654;28;45352;-50
2021/07/26 07:09:21;;;;;;;;;8.00;7.00;;;;;25.13;48.12;100617.81;5079279;27;47066;-47
2021/07/26 07:11:46;;;;;;;;;7.50;7.25;;;;;25.14;48.17;100621.28;5079399;27;45443;-46
2021/07/26 07:14:12;;;;;;;;;8.00;8.00;;;;;25.15;48.60;100630.94;5079789;28;45460;-46
2021/07/26 07:16:37;;;;;;;;;7.75;7.00;;;;;25.14;48.21;100631.88;5079543;28;45375;-48
2021/07/26 07:19:03;;;;;;;;;8.00;8.00;;;;;25.14;48.33;100630.06;5079082;28;46271;-46
2021/07/26 07:21:33;;;;;;;;;7.00;6.00;;;;;25.15;48.11;100641.53;5079350;27;45270;-46
2021/07/26 07:24:00;;;;;;;;;9.00;7.25;;;;;25.14;48.47;100639.84;5079355;28;45748;-47
2021/07/26 07:26:26;;;;;;;;;11.25;8.25;;;;;25.14;48.87;100634.53;5079233;28;45540;-48
2021/07/26 07:28:51;;;;;;;;;7.00;7.00;;;;;25.13;49.11;100643.47;5078947;28;46020;-48
2021/07/26 07:31:22;;;;;;;;;9.00;8.00;;;;;25.13;49.30;100643.47;5078979;28;45370;-46
2021/07/26 07:33:47;;;;;;;;;8.00;8.00;;;;;25.12;48.95;100642.63;5078421;28;45254;-49
2021/07/26 07:36:13;;;;;;;;;8.00;8.00;;;;;25.13;49.38;100643.47;5079634;28;45639;-44
2021/07/26 07:38:38;;;;;;;;;9.25;7.75;;;;;25.13;49.45;100643.47;5078808;27;46639;-43
2021/07/26 07:41:05;;;;;;;;;10.00;7.00;;;;;25.12;49.05;100647.06;5078802;28;45722;-48
2021/07/26 07:43:31;;;;;;;;;8.25;6.75;;;;;25.12;48.77;100652.38;5078979;28;45554;-48
2021/07/26 07:45:58;;;;;;;;;9.25;8.25;;;;;25.11;49.29;100650.69;5079168;28;45391;-45
2021/07/26 07:48:24;;;;;;;;;8.50;6.75;;;;;25.10;49.08;100644.56;5078708;28;46164;-46
2021/07/26 07:50:51;;;;;;;;;8.25;7.75;;;;;25.11;49.09;100656.00;5078858;28;45343;-49
2021/07/26 07:53:16;;;;;;;;;10.50;8.75;;;;;25.12;49.65;100649.72;5078851;28;45306;-52
2021/07/26 07:55:42;;;;;;;;;8.75;7.75;;;;;25.10;49.35;100649.00;5079314;28;45221;-48
2021/07/26 07:58:07;;;;;;;;;6.75;6.75;;;;;25.12;49.29;100652.38;5078524;28;46049;-49
2021/07/26 08:00:33;;;;;;;;;8.25;8.25;;;;;25.12;49.76;100655.88;5078609;28;45239;-49
2021/07/26 08:02:59;;;;;;;;;12.00;8.75;;;;;25.12;49.26;100653.22;5078189;28;50715;-52
2021/07/26 08:05:25;;;;;;;;;5.75;5.75;;;;;25.13;49.44;100654.06;5078861;28;45517;-48
2021/07/26 08:07:50;;;;;;;;;9.00;9.00;;;;;25.13;50.00;100657.59;5078405;28;46063;-50
2021/07/26 08:10:15;;;;;;;;;13.00;8.75;;;;;25.13;49.87;100660.22;5078669;28;45376;-49
2021/07/26 08:12:42;;;;;;;;;10.50;9.25;;;;;25.13;49.91;100652.28;5078763;28;45328;-44
2021/07/26 08:15:08;;;;;;;;;8.50;7.50;;;;;25.13;49.89;100662.88;5078591;28;45349;-45
2021/07/26 08:17:38;;;;;;;;;10.00;9.25;;;;;25.12;49.50;100661.19;5078112;28;47039;-46
2021/07/26 08:20:04;;;;;;;;;10.00;10.00;;;;;25.15;50.22;100668.06;5078260;28;45262;-48
2021/07/26 08:22:29;;;;;;;;;9.75;9.50;;;;;25.15;50.03;100662.75;5078320;28;45361;-46
2021/07/26 08:24:54;;;;;;;;;10.75;9.50;;;;;25.16;49.86;100669.75;5078270;27;45573;-47
2021/07/26 08:27:20;;;;;;;;;13.00;13.00;;;;;25.16;49.67;100665.28;5077652;28;52937;-48
2021/07/26 08:29:45;;;;;;;;;10.00;9.00;;;;;25.16;50.01;100667.94;5078353;28;45370;-48
2021/07/26 08:32:10;;;;;;;;;10.75;8.25;;;;;25.16;49.64;100673.22;5077875;28;49572;-45
2021/07/26 08:34:36;;;;;;;;;12.75;11.00;;;;;25.16;50.09;100669.75;5078160;27;45333;-48
2021/07/26 08:37:02;;;;;;;;;10.00;8.25;;;;;25.18;49.93;100665.16;5077785;28;46018;-46
2021/07/26 08:39:28;;;;;;;;;9.00;8.25;;;;;25.18;49.98;100673.13;5077980;28;45322;-48
2021/07/26 08:41:53;;;;;;;;;9.50;9.50;;;;;25.18;50.25;100673.13;5078022;27;45368;-48
2021/07/26 08:44:18;;;;;;;;;13.50;10.50;;;;;25.18;49.94;100678.44;5077663;28;45496;-46
2021/07/26 08:46:45;;;;;;;;;12.25;10.75;;;;;25.18;49.82;100673.13;5077479;28;46031;-47
2021/07/26 08:49:14;;;;;;;;;11.25;9.25;;;;;25.21;49.85;100674.69;5076442;28;45722;-45
2021/07/26 08:51:44;;;;;;;;;9.25;8.25;;;;;25.22;49.71;100679.03;5077778;28;45383;-46
2021/07/26 08:54:15;;;;;;;;;12.50;11.25;;;;;25.20;49.85;100676.47;5078043;28;45375;-47
2021/07/26 08:56:41;;;;;;;;;11.25;8.75;;;;;25.22;49.75;100679.88;5077650;28;45960;-47
2021/07/26 08:59:06;;;;;;;;;13.50;11.25;;;;;25.22;49.92;100674.56;5077616;28;45385;-48
2021/07/26 09:01:33;;;;;;;;;12.75;12.25;;;;;25.22;50.10;100682.50;5077802;28;45335;-45
2021/07/26 09:03:58;;;;;;;;;13.00;11.50;;;;;25.24;49.62;100683.25;5077899;28;45332;-48
2021/07/26 09:06:24;;;;;;;;;11.75;9.25;;;;;25.23;50.38;100686.03;5076095;28;46277;-48
2021/07/26 09:08:50;;;;;;;;;10.25;10.00;;;;;25.24;49.60;100691.19;5077452;28;45194;-47
2021/07/26 09:11:15;;;;;;;;;9.25;9.25;;;;;25.25;50.32;100684.94;5077974;28;45343;-49
2021/07/26 09:13:45;;;;;;;;;12.75;11.50;;;;;25.25;49.74;100689.38;5077609;28;45166;-49
2021/07/26 09:16:21;;;;;;;;;8.50;8.50;;;;;25.25;50.16;100690.25;5077107;27;46384;-46
2021/07/26 09:19:00;;;;;;;;;12.75;10.00;;;;;25.25;50.10;100687.59;5077533;28;45701;-47
2021/07/26 09:21:56;;;;;;;;;8.00;8.00;;;;;25.24;50.00;100688.56;5077275;28;45421;-47
2021/07/26 09:24:28;;;;;;;;;11.75;8.50;;;;;25.24;50.10;100688.56;5077597;28;45253;-46
2021/07/26 09:27:06;;;;;;;;;11.25;9.00;;;;;25.24;50.39;100688.56;5076949;28;46157;-46
2021/07/26 09:29:31;;;;;;;;;11.75;10.00;;;;;25.22;49.98;100690.47;5077204;28;45425;-47
2021/07/26 09:32:06;;;;;;;;;12.75;10.75;;;;;25.23;49.69;100686.03;5077182;28;45268;-47
2021/07/26 09:34:36;;;;;;;;;8.50;7.25;;;;;25.23;49.71;100689.50;5077251;27;45542;-47
2021/07/26 09:37:16;;;;;;;;;10.00;9.75;;;;;25.23;49.75;100684.22;5076810;28;46348;-47
2021/07/26 09:39:41;;;;;;;;;8.50;8.25;;;;;25.24;50.21;100699.16;5076988;28;45340;-46
2021/07/26 09:42:24;;;;;;;;;12.50;11.25;;;;;25.25;49.99;100697.34;5075795;28;45473;-46
2021/07/26 09:44:49;;;;;;;;;11.00;11.00;;;;;25.24;49.86;100695.69;5077623;28;45467;-45
2021/07/26 09:47:19;;;;;;;;;11.50;10.25;;;;;25.24;50.33;100699.16;5076900;28;46066;-44
2021/07/26 09:49:45;;;;;;;;;15.50;12.50;;;;;25.25;50.13;100694.69;5076971;28;45799;-46
2021/07/26 09:52:10;;;;;;;;;10.25;8.00;;;;;25.25;50.63;100695.53;5077037;28;45327;-47
2021/07/26 09:54:43;;;;;;;;;13.50;9.25;;;;;25.24;50.21;100693.84;5077050;28;45362;-48
2021/07/26 09:57:19;;;;;;;;;9.75;9.00;;;;;25.25;50.02;100692.03;5076476;27;47769;-48
2021/07/26 09:59:45;;;;;;;;;10.50;10.50;;;;;25.26;50.57;100697.25;5076786;28;45558;-45
2021/07/26 10:02:15;;;;;;;;;10.25;9.50;;;;;25.27;50.05;100698.06;5077140;28;45331;-44
2021/07/26 10:04:46;;;;;;;;;13.25;11.75;;;;;25.27;50.07;100698.94;5092816;27;45720;-45
2021/07/26 10:07:13;;;;;;;;;11.75;10.00;;;;;25.28;50.04;100702.41;5058397;28;47162;-45
2021/07/26 10:09:42;;;;;;;;;12.25;10.00;;;;;25.29;49.97;100706.75;5076516;28;45739;-46
2021/07/26 10:12:14;;;;;;;;;12.00;12.00;;;;;25.29;50.69;100701.44;5076696;28;45470;-49
2021/07/26 10:14:47;;;;;;;;;10.50;9.50;;;;;25.28;50.27;100708.56;5076787;28;45475;-45
2021/07/26 10:17:13;;;;;;;;;12.75;10.00;;;;;25.30;50.72;100697.84;5076193;28;46076;-47
2021/07/26 10:19:38;;;;;;;;;14.00;11.00;;;;;25.27;50.12;100693.63;5076546;28;45385;-47
2021/07/26 10:22:06;;;;;;;;;9.25;9.25;;;;;25.31;50.42;100695.06;5076514;28;45343;-47
2021/07/26 10:24:54;;;;;;;;;12.50;11.00;;;;;25.32;50.60;100695.91;5076739;28;45704;-49
2021/07/26 10:27:28;;;;;;;;;11.75;10.50;;;;;25.34;50.60;100699.28;5076525;28;45440;-48
2021/07/26 10:29:56;;;;;;;;;10.75;9.75;;;;;25.34;49.95;100693.13;5076417;27;45221;-46
2021/07/26 10:32:30;;;;;;;;;11.75;10.75;;;;;25.35;50.04;100698.34;5076678;28;45352;-46
2021/07/26 10:34:56;;;;;;;;;14.00;11.75;;;;;25.35;50.73;100700.13;5076506;27;45572;-44
2021/07/26 10:37:37;;;;;;;;;12.25;11.75;;;;;25.35;50.64;100695.69;5076464;28;45405;-44
2021/07/26 10:40:27;;;;;;;;;11.75;11.50;;;;;25.35;50.10;100700.13;5076165;28;45237;-47
2021/07/26 10:42:53;;;;;;;;;13.25;12.00;;;;;25.36;50.67;100699.16;5076582;28;45327;-46
2021/07/26 10:45:30;;;;;;;;;12.00;12.00;;;;;25.35;50.22;100700.13;5076791;28;45327;-47
2021/07/26 10:48:27;;;;;;;;;12.75;12.00;;;;;25.37;50.59;100700.84;5076073;27;45563;-46
2021/07/26 10:50:54;;;;;;;;;12.50;10.75;;;;;25.37;50.65;100698.22;5076329;28;45348;-49
2021/07/26 10:53:32;;;;;;;;;13.50;11.00;;;;;25.38;50.63;100683.97;5076521;27;45583;-47
2021/07/26 10:56:11;;;;;;;;;13.00;12.00;;;;;25.37;50.10;100696.38;5076289;28;45633;-46
2021/07/26 10:58:39;;;;;;;;;14.00;11.00;;;;;25.38;50.11;100700.72;5075987;28;46123;-45
2021/07/26 11:01:20;;;;;;;;;13.75;11.75;;;;;25.38;50.19;100699.91;5075777;28;45804;-48
2021/07/26 11:03:46;;;;;;;;;10.25;9.50;;;;;25.38;50.15;100695.41;5076072;27;45284;-46
2021/07/26 11:06:34;;;;;;;;;12.00;11.00;;;;;25.39;50.63;100690.97;5076073;27;45613;-46
2021/07/26 11:09:34;;;;;;;;;12.00;11.00;;;;;25.39;50.44;100685.66;5077573;28;46005;-47
2021/07/26 11:12:02;;;;;;;;;12.75;12.75;;;;;25.40;50.65;100692.66;5079305;27;45435;-49
2021/07/26 11:14:28;;;;;;;;;13.00;11.00;;;;;25.39;49.69;100691.81;5079317;27;45394;-47
2021/07/26 11:19:58;;;;;;;;;14.67;13.00;;;;;25.40;50.43;100690.88;5079192;28;45296;-48
2021/07/26 11:22:26;;;;;;;;;12.50;12.00;;;;;25.42;49.94;100688.94;5079329;28;45729;-46
2021/07/26 11:24:56;;;;;;;;;12.50;12.50;;;;;25.42;50.08;100685.44;5079713;27;45350;-47
2021/07/26 11:27:24;;;;;;;;;13.00;12.25;;;;;25.44;49.86;100689.69;5079626;28;45492;-45